Arkville, New York
Current Conditions -  °F | °C
As of 1:15 PM on Thursday 23 Oct 2014 (Local Time) from KMSV Reporting Station
Overcast Overcast  
Wind Chill:   Ceiling: 7000
Heat Index:   Visibility: 10mi
Dew Point:   Wind: 14mph
Humidity: 87%   Direction: 350°N
Pressure: 29.78"   Gusts: 23mph
Location:  42.15°N, 74.62°W
Report Text: KMSV 231715Z AUTO 35012G20KT 10SM FEW018 SCT060 OVC070 08/06 A2978 RMK AO1
Loading
Personal Weather Stations






























Interactive Weather Map
Tropical Storm Tracking
New forecast layout! Learn more

10-Day Weather Forecast

Advertisements
Track Severe Weather on mobile